createdAt,value
2022-10-07T00:02:25.713Z,2.80
2022-10-07T00:05:30.982Z,2.65
2022-10-07T00:08:37.253Z,2.50
2022-10-07T00:11:41.914Z,2.38
2022-10-07T00:14:46.906Z,2.40
2022-10-07T00:17:51.273Z,1.75
2022-10-07T00:20:55.659Z,2.30
2022-10-07T00:24:07.252Z,2.10
2022-10-07T00:27:15.612Z,1.50
2022-10-07T00:30:20.257Z,1.60
2022-10-07T00:33:24.748Z,1.70
2022-10-07T00:36:35.612Z,1.60
2022-10-07T00:39:39.745Z,1.70
2022-10-07T00:42:44.419Z,1.80
2022-10-07T00:45:49.139Z,1.50
2022-10-07T00:48:54.603Z,1.73
2022-10-07T00:51:59.161Z,1.80
2022-10-07T00:55:09.684Z,1.50
2022-10-07T00:58:14.736Z,2.05
2022-10-07T01:01:21.051Z,1.60
2022-10-07T01:04:25.491Z,1.40
2022-10-07T01:07:30.297Z,1.23
2022-10-07T01:11:13.940Z,1.40
2022-10-07T01:14:48.166Z,1.40
2022-10-07T01:18:13.100Z,1.40
2022-10-07T01:22:00.848Z,1.10
2022-10-07T01:25:28.904Z,1.20
2022-10-07T01:29:04.096Z,1.20
2022-10-07T01:32:17.718Z,1.08
2022-10-07T01:35:33.489Z,1.02
2022-10-07T01:38:45.397Z,1.35
2022-10-07T01:41:51.464Z,1.30
2022-10-07T01:44:58.907Z,1.52
2022-10-07T01:48:04.151Z,1.13
2022-10-07T01:51:10.475Z,1.10
2022-10-07T01:54:59.465Z,1.17
2022-10-07T01:58:22.206Z,1.02
2022-10-07T02:01:54.091Z,1.10
2022-10-07T02:05:42.487Z,1.20
2022-10-07T02:08:53.987Z,1.25
2022-10-07T02:12:18.047Z,1.20
2022-10-07T02:15:39.967Z,1.00
2022-10-07T02:18:51.871Z,1.20
2022-10-07T02:21:58.276Z,1.20
2022-10-07T02:25:03.816Z,1.25
2022-10-07T02:28:11.624Z,1.13
2022-10-07T02:31:25.217Z,1.30
2022-10-07T02:34:30.984Z,1.05
2022-10-07T02:37:38.206Z,1.25
2022-10-07T02:41:31.698Z,1.08
2022-10-07T02:45:13.400Z,1.23
2022-10-07T02:48:37.504Z,1.08
2022-10-07T02:51:51.153Z,1.20
2022-10-07T02:55:01.649Z,1.13
2022-10-07T02:58:08.652Z,1.10
2022-10-07T03:01:20.469Z,1.27
2022-10-07T03:04:25.179Z,1.30
2022-10-07T03:07:30.145Z,1.05
2022-10-07T03:10:35.633Z,1.13
2022-10-07T03:13:40.255Z,1.23
2022-10-07T03:16:44.541Z,1.20
2022-10-07T03:19:49.486Z,1.30
2022-10-07T03:22:54.227Z,1.13
2022-10-07T03:26:00.621Z,1.38
2022-10-07T03:29:06.640Z,1.20
2022-10-07T03:32:11.856Z,1.30
2022-10-07T03:35:16.751Z,1.10
2022-10-07T03:38:22.638Z,1.17
2022-10-07T03:41:27.301Z,1.30
2022-10-07T03:44:35.732Z,1.10
2022-10-07T03:47:40.235Z,1.10
2022-10-07T03:50:52.325Z,1.08
2022-10-07T03:57:27.915Z,1.23
2022-10-07T04:00:34.721Z,1.00
2022-10-07T04:03:39.400Z,1.20
2022-10-07T04:06:45.508Z,1.20
2022-10-07T04:09:52.068Z,1.05
2022-10-07T04:12:57.550Z,1.00
2022-10-07T04:16:10.340Z,1.48
2022-10-07T04:19:16.628Z,1.30
2022-10-07T04:22:21.039Z,1.20
2022-10-07T04:25:34.695Z,1.00
2022-10-07T04:28:49.257Z,1.27
2022-10-07T04:31:58.821Z,1.05
2022-10-07T04:35:03.504Z,1.20
2022-10-07T04:38:13.591Z,0.95
2022-10-07T04:41:20.114Z,1.10
2022-10-07T04:44:26.184Z,1.30
2022-10-07T04:47:36.440Z,1.33
2022-10-07T04:50:43.162Z,1.20
2022-10-07T04:53:57.112Z,1.05
2022-10-07T04:57:09.955Z,1.23
2022-10-07T05:00:15.105Z,1.10
2022-10-07T05:03:22.634Z,1.20
2022-10-07T05:06:27.800Z,1.20
2022-10-07T05:09:32.677Z,1.38
2022-10-07T05:12:41.551Z,1.00
2022-10-07T05:15:56.964Z,1.27
2022-10-07T05:19:02.029Z,1.30
2022-10-07T05:22:07.237Z,1.45
2022-10-07T05:25:11.632Z,1.27
2022-10-07T05:28:16.604Z,1.20
2022-10-07T05:31:21.113Z,1.00
2022-10-07T05:34:31.156Z,1.48
2022-10-07T05:37:37.198Z,1.13
2022-10-07T05:40:42.273Z,1.20
2022-10-07T05:43:48.185Z,1.35
2022-10-07T05:46:55.071Z,1.25
2022-10-07T05:50:00.679Z,1.40
2022-10-07T05:53:30.666Z,1.40
2022-10-07T05:56:38.384Z,1.15
2022-10-07T05:59:44.331Z,0.95
2022-10-07T06:02:48.906Z,1.20
2022-10-07T06:05:54.782Z,1.00
2022-10-07T06:09:25.225Z,1.40
2022-10-07T06:12:48.636Z,1.10
2022-10-07T06:15:53.430Z,1.20
2022-10-07T06:19:00.093Z,1.20
2022-10-07T06:22:07.408Z,1.10
2022-10-07T06:25:20.181Z,1.40
2022-10-07T06:28:39.404Z,1.30
2022-10-07T06:31:46.226Z,1.00
2022-10-07T06:34:50.447Z,1.30
2022-10-07T06:37:55.408Z,1.33
2022-10-07T06:41:02.017Z,1.30
2022-10-07T06:44:09.514Z,1.00
2022-10-07T06:47:13.830Z,1.05
2022-10-07T06:50:21.192Z,1.00
2022-10-07T06:53:26.985Z,0.98
2022-10-07T06:56:32.023Z,1.30
2022-10-07T06:59:37.183Z,1.00
2022-10-07T07:02:48.131Z,1.20
2022-10-07T07:05:54.869Z,0.90
2022-10-07T07:09:04.642Z,1.30
2022-10-07T07:12:11.055Z,1.10
2022-10-07T07:15:20.188Z,1.10
2022-10-07T07:18:25.124Z,1.10
2022-10-07T07:21:31.627Z,1.20
2022-10-07T07:24:36.746Z,1.30
2022-10-07T07:27:42.045Z,1.23
2022-10-07T07:30:50.470Z,1.70
2022-10-07T07:34:01.840Z,1.38
2022-10-07T07:37:07.396Z,1.05
2022-10-07T07:40:19.222Z,1.20
2022-10-07T07:43:24.493Z,1.27
2022-10-07T07:46:36.258Z,1.20
2022-10-07T07:49:40.932Z,1.40
2022-10-07T07:52:51.925Z,1.50
2022-10-07T07:56:02.406Z,1.35
2022-10-07T07:59:08.467Z,1.58
2022-10-07T08:02:13.373Z,1.30
2022-10-07T08:05:24.209Z,1.42
2022-10-07T08:08:32.420Z,1.20
2022-10-07T08:11:37.474Z,1.42
2022-10-07T08:14:43.226Z,1.30
2022-10-07T08:17:48.174Z,1.35
2022-10-07T08:21:01.585Z,1.10
2022-10-07T08:24:09.744Z,1.20
2022-10-07T08:27:15.879Z,1.30
2022-10-07T08:30:20.768Z,1.50
2022-10-07T08:33:26.945Z,1.30
2022-10-07T08:36:33.061Z,1.20
2022-10-07T08:39:37.445Z,1.17
2022-10-07T08:42:43.987Z,1.30
2022-10-07T08:45:48.844Z,1.13
2022-10-07T08:49:00.826Z,1.42
2022-10-07T08:52:37.829Z,1.40
2022-10-07T08:55:56.441Z,1.00
2022-10-07T08:59:12.796Z,1.15
2022-10-07T09:02:31.771Z,1.30
2022-10-07T09:05:44.332Z,1.27
2022-10-07T09:08:55.721Z,0.98
2022-10-07T09:12:05.053Z,1.00
2022-10-07T09:15:51.712Z,1.50
2022-10-07T09:19:00.056Z,1.30
2022-10-07T09:22:21.537Z,1.10
2022-10-07T09:25:29.629Z,0.93
2022-10-07T09:28:34.318Z,1.00
2022-10-07T09:31:40.083Z,0.90
2022-10-07T09:34:46.139Z,1.08
2022-10-07T09:38:09.619Z,1.27
2022-10-07T09:44:31.467Z,0.80
2022-10-07T09:47:40.343Z,0.93
2022-10-07T09:50:46.758Z,1.20
2022-10-07T09:54:07.106Z,1.08
2022-10-07T09:57:35.855Z,1.00
2022-10-07T10:00:44.488Z,1.00
2022-10-07T10:03:50.876Z,0.82
2022-10-07T10:07:01.923Z,0.77
2022-10-07T10:10:27.883Z,1.10
2022-10-07T10:13:40.694Z,0.80
2022-10-07T10:16:47.074Z,1.23
2022-10-07T10:19:52.175Z,0.93
2022-10-07T10:22:58.757Z,1.20
2022-10-07T10:26:33.404Z,0.80
2022-10-07T10:29:53.529Z,0.70
2022-10-07T10:34:02.288Z,0.90
2022-10-07T10:37:19.070Z,1.08
2022-10-07T10:40:43.529Z,1.10
2022-10-07T10:44:04.349Z,0.95
2022-10-07T10:47:26.922Z,0.93
2022-10-07T10:51:04.165Z,0.47
2022-10-07T10:54:39.409Z,1.00
2022-10-07T10:58:48.049Z,1.00
2022-10-07T11:02:40.578Z,0.88
2022-10-07T11:05:47.153Z,1.13
2022-10-07T11:08:54.687Z,0.90
2022-10-07T11:12:04.896Z,0.70
2022-10-07T11:15:25.537Z,0.80
2022-10-07T11:19:23.862Z,0.63
2022-10-07T11:22:37.904Z,0.80
2022-10-07T11:25:57.337Z,0.80
2022-10-07T11:29:35.988Z,0.82
2022-10-07T11:33:10.437Z,0.77
2022-10-07T11:37:03.244Z,0.73
2022-10-07T11:40:09.639Z,1.00
2022-10-07T11:43:33.371Z,0.70
2022-10-07T11:46:45.181Z,0.77
2022-10-07T11:50:19.471Z,1.20
2022-10-07T11:53:28.428Z,0.75
2022-10-07T11:56:52.645Z,0.93
2022-10-07T12:00:02.907Z,0.73
2022-10-07T12:03:20.593Z,0.63
2022-10-07T12:06:25.163Z,0.80
2022-10-07T12:10:03.627Z,0.90
2022-10-07T12:13:10.827Z,1.00
2022-10-07T12:16:24.478Z,1.02
2022-10-07T12:19:29.197Z,0.60
2022-10-07T12:22:33.631Z,0.98
2022-10-07T12:25:46.640Z,0.90
2022-10-07T12:28:52.232Z,0.80
2022-10-07T12:31:57.302Z,0.98
2022-10-07T12:35:34.632Z,1.33
2022-10-07T12:38:39.082Z,0.75
2022-10-07T12:41:46.365Z,0.88
2022-10-07T12:44:56.583Z,1.13
2022-10-07T12:48:02.664Z,1.08
2022-10-07T12:51:19.329Z,1.00
2022-10-07T12:54:36.470Z,1.00
2022-10-07T12:57:47.931Z,0.75
2022-10-07T13:01:40.654Z,1.13
2022-10-07T13:05:22.608Z,0.77
2022-10-07T13:08:32.564Z,0.90
2022-10-07T13:11:49.330Z,0.80
2022-10-07T13:15:33.676Z,0.80
2022-10-07T13:18:48.710Z,0.60
2022-10-07T13:22:12.915Z,0.90
2022-10-07T13:25:20.840Z,0.88
2022-10-07T13:29:00.234Z,1.02
2022-10-07T13:32:15.930Z,0.90
2022-10-07T13:35:37.530Z,0.60
2022-10-07T13:38:47.241Z,0.77
2022-10-07T13:41:55.632Z,0.80
2022-10-07T13:45:02.639Z,1.20
2022-10-07T13:48:16.069Z,1.10
2022-10-07T13:51:40.001Z,1.00
2022-10-07T13:54:51.536Z,0.93
2022-10-07T13:58:00.758Z,1.08
2022-10-07T14:01:06.539Z,1.00
2022-10-07T14:04:20.222Z,0.80
2022-10-07T14:07:28.431Z,0.60
2022-10-07T14:10:33.741Z,0.98
2022-10-07T14:13:42.508Z,0.98
2022-10-07T14:16:49.659Z,0.60
2022-10-07T14:19:59.169Z,1.13
2022-10-07T14:23:17.018Z,0.80
2022-10-07T14:26:21.651Z,0.70
2022-10-07T14:29:29.629Z,1.10
2022-10-07T14:32:52.702Z,0.90
2022-10-07T14:36:19.436Z,0.60
2022-10-07T14:39:36.736Z,0.80
2022-10-07T14:42:41.705Z,0.73
2022-10-07T14:45:46.682Z,0.90
2022-10-07T14:48:53.697Z,0.90
2022-10-07T14:52:00.181Z,0.80
2022-10-07T14:55:11.698Z,0.70
2022-10-07T14:58:16.471Z,0.80
2022-10-07T15:01:21.369Z,0.60
2022-10-07T15:04:25.849Z,0.98
2022-10-07T15:07:31.046Z,0.70
2022-10-07T15:10:35.599Z,0.60
2022-10-07T15:13:40.421Z,0.80
2022-10-07T15:16:44.761Z,0.73
2022-10-07T15:19:51.807Z,0.65
2022-10-07T15:22:56.828Z,0.80
2022-10-07T15:26:02.471Z,0.98
2022-10-07T15:29:09.993Z,0.80
2022-10-07T15:32:14.512Z,0.80
2022-10-07T15:35:19.060Z,0.60
2022-10-07T15:38:24.145Z,1.10
2022-10-07T15:41:37.224Z,0.65
2022-10-07T15:44:43.660Z,0.73
2022-10-07T15:47:50.441Z,0.68
2022-10-07T15:50:57.406Z,1.13
2022-10-07T15:54:03.902Z,0.75
2022-10-07T15:57:08.475Z,0.77
2022-10-07T16:00:14.250Z,0.90
2022-10-07T16:03:18.892Z,1.10
2022-10-07T16:06:27.802Z,0.90
2022-10-07T16:09:32.528Z,0.98
2022-10-07T16:12:37.384Z,0.77
2022-10-07T16:15:43.173Z,1.00
2022-10-07T16:18:51.948Z,1.02
2022-10-07T16:21:56.484Z,1.15
2022-10-07T16:25:01.227Z,0.80
2022-10-07T16:28:23.940Z,0.70
2022-10-07T16:31:28.940Z,0.82
2022-10-07T16:34:33.894Z,1.20
2022-10-07T16:37:38.595Z,0.77
2022-10-07T16:40:53.023Z,0.95
2022-10-07T16:44:01.787Z,0.80
2022-10-07T16:47:06.459Z,0.60
2022-10-07T16:50:11.316Z,0.77
2022-10-07T16:53:15.632Z,0.65
2022-10-07T16:56:22.267Z,0.80
2022-10-07T16:59:27.038Z,0.70
2022-10-07T17:02:31.985Z,0.88
2022-10-07T17:05:39.129Z,1.30
2022-10-07T17:08:48.346Z,1.05
2022-10-07T17:11:53.190Z,1.05
2022-10-07T17:14:57.995Z,1.02
2022-10-07T17:18:02.825Z,1.17
2022-10-07T17:21:07.196Z,1.00
2022-10-07T17:24:13.147Z,0.98
2022-10-07T17:27:17.881Z,1.20
2022-10-07T17:30:22.597Z,1.02
2022-10-07T17:33:27.216Z,0.90
2022-10-07T17:36:33.010Z,0.98
2022-10-07T17:39:37.930Z,0.90
2022-10-07T17:42:42.520Z,0.68
2022-10-07T17:45:48.131Z,0.70
2022-10-07T17:48:56.043Z,0.90
2022-10-07T17:52:00.731Z,0.90
2022-10-07T17:55:06.941Z,1.17
2022-10-07T17:58:11.711Z,1.00
2022-10-07T18:01:31.911Z,0.80
2022-10-07T18:04:36.601Z,1.02
2022-10-07T18:07:42.574Z,0.88
2022-10-07T18:10:51.763Z,0.80
2022-10-07T18:14:15.101Z,0.93
2022-10-07T18:17:19.878Z,1.17
2022-10-07T18:20:28.253Z,1.00
2022-10-07T18:23:33.340Z,0.85
2022-10-07T18:26:38.145Z,1.00
2022-10-07T18:29:43.250Z,0.93
2022-10-07T18:32:47.850Z,0.98
2022-10-07T18:36:07.643Z,1.20
2022-10-07T18:39:13.499Z,1.30
2022-10-07T18:42:18.460Z,1.33
2022-10-07T18:45:23.509Z,1.58
2022-10-07T18:48:34.485Z,1.67
2022-10-07T18:51:40.082Z,1.77
2022-10-07T18:54:44.913Z,1.98
2022-10-07T18:57:49.802Z,2.40
2022-10-07T19:00:54.827Z,2.47
2022-10-07T19:04:02.894Z,2.75
2022-10-07T19:07:07.277Z,2.40
2022-10-07T19:10:12.122Z,2.65
2022-10-07T19:13:36.339Z,2.55
2022-10-07T19:16:49.309Z,2.60
2022-10-07T19:19:53.932Z,2.47
2022-10-07T19:22:58.735Z,2.70
2022-10-07T19:26:03.740Z,2.90
2022-10-07T19:29:13.136Z,2.95
2022-10-07T19:32:17.570Z,2.70
2022-10-07T19:35:22.182Z,3.17
2022-10-07T19:38:27.216Z,3.40
2022-10-07T19:41:34.088Z,3.40
2022-10-07T19:44:38.375Z,3.83
2022-10-07T19:47:43.864Z,4.55
2022-10-07T19:50:57.968Z,4.28
2022-10-07T19:54:06.235Z,4.03
2022-10-07T19:57:10.876Z,4.00
2022-10-07T20:00:15.492Z,3.83
2022-10-07T20:03:20.210Z,3.85
2022-10-07T20:06:25.269Z,3.33
2022-10-07T20:09:30.219Z,4.32
2022-10-07T20:12:34.835Z,4.25
2022-10-07T20:15:39.381Z,3.50
2022-10-07T20:18:46.097Z,4.00
2022-10-07T20:21:50.906Z,4.95
2022-10-07T20:24:56.625Z,5.43
2022-10-07T20:28:01.199Z,5.40
2022-10-07T20:31:09.372Z,4.57
2022-10-07T20:34:18.944Z,4.32
2022-10-07T20:37:23.485Z,3.70
2022-10-07T20:40:46.414Z,3.08
2022-10-07T20:43:51.020Z,3.05
2022-10-07T20:46:55.808Z,2.70
2022-10-07T20:50:02.614Z,2.63
2022-10-07T20:53:06.919Z,2.38
2022-10-07T20:56:11.324Z,2.83
2022-10-07T20:59:15.963Z,2.35
2022-10-07T21:02:23.261Z,2.20
2022-10-07T21:05:29.942Z,2.00
2022-10-07T21:08:34.445Z,1.70
2022-10-07T21:11:39.226Z,1.80
2022-10-07T21:14:44.487Z,2.63
2022-10-07T21:17:49.212Z,3.88
2022-10-07T21:20:56.955Z,4.55
2022-10-07T21:24:02.055Z,4.82
2022-10-07T21:27:07.735Z,5.53
2022-10-07T21:30:12.511Z,4.93
2022-10-07T21:33:16.890Z,5.95
2022-10-07T21:36:24.245Z,7.18
2022-10-07T21:39:28.923Z,10.05
2022-10-07T21:42:33.759Z,11.45
2022-10-07T21:45:41.312Z,9.38
2022-10-07T21:48:46.847Z,7.30
2022-10-07T21:51:51.522Z,4.93
2022-10-07T21:54:56.069Z,4.40
2022-10-07T21:58:01.656Z,3.20
2022-10-07T22:01:11.971Z,3.30
2022-10-07T22:04:18.778Z,2.55
2022-10-07T22:07:41.493Z,2.15
2022-10-07T22:10:45.790Z,2.20
2022-10-07T22:13:55.189Z,1.88
2022-10-07T22:16:59.663Z,1.80
2022-10-07T22:20:04.346Z,1.20
2022-10-07T22:23:08.658Z,1.20
2022-10-07T22:26:13.514Z,1.25
2022-10-07T22:29:20.046Z,1.23
2022-10-07T22:32:24.632Z,1.27
2022-10-07T22:35:30.496Z,1.27
2022-10-07T22:38:35.299Z,1.60
2022-10-07T22:41:40.395Z,1.30
2022-10-07T22:44:44.902Z,1.10
2022-10-07T22:47:50.355Z,1.30
2022-10-07T22:51:00.984Z,1.20
2022-10-07T22:54:07.202Z,1.17
2022-10-07T22:57:11.777Z,1.30
2022-10-07T23:00:16.280Z,0.95
2022-10-07T23:03:20.882Z,0.98
2022-10-07T23:06:25.699Z,1.15
2022-10-07T23:09:30.324Z,1.38
2022-10-07T23:12:35.271Z,0.93
2022-10-07T23:15:39.592Z,0.90
2022-10-07T23:18:46.519Z,1.13
2022-10-07T23:21:51.310Z,1.58
2022-10-07T23:24:55.593Z,1.10
2022-10-07T23:27:59.910Z,1.00
2022-10-07T23:31:07.788Z,1.30
2022-10-07T23:34:14.008Z,1.30
2022-10-07T23:37:19.035Z,0.85
2022-10-07T23:40:23.827Z,1.20
2022-10-07T23:43:33.359Z,1.20
2022-10-07T23:46:39.691Z,1.45
2022-10-07T23:49:44.495Z,1.15
2022-10-07T23:52:49.371Z,1.00
2022-10-07T23:55:54.179Z,1.05
2022-10-07T23:58:59.059Z,1.10
